Other Surface Observations
Issued by NWS Missoula, MT

Home | Current Version | Previous Version | Text Only | Print | Product List | Glossary On
Versions: 1 2 3 4 5 6 7 8 9 10 11 12 13 14 15 16 17 18 19 20 21 22 23 24 25 26 27 28 29 30 31 32 33 34 35 36 37 38 39 40 41 42 43 44 45 46 47 48 49 50
000
SXUS55 KMSO 202104
OSOMSO
MONTANA AWOS SUMMARY
NATIONAL WEATHER SERVICE MISSOULA MT
303 PM MDT WED AUG 20 2014

Montana AWOS Reports

LAUREL      |K6S8 202055Z AUTO 00000KT 40SM 28/07 A2985 RMK AO1 T02780072
SCOBEY      |K9S2 202055Z AUTO 34009KT 18/14 A2977 RMK AO1 T01830144
PLAINS      |KS34 202055Z AUTO 00000KT 40SM 23/14 A2988 RMK AO1 T02280139
ROUNDUP     |KRPX 202055Z AUTO 31014G23KT 40SM 24/08 A2978 RMK AO1 T02440078
MALTA       |KM75 202055Z AUTO 27009G16KT 40SM 27/11 A2975 RMK AO1 T02720106




USA.gov is the U.S. government's official web portal to all federal, state and local government web resources and services.